Westwood Rainier — C6SI3 — position and weather

sailwx.info

Track history (hours):
 
Tides and Currents Weather Stations Pressure Air Temp Water Temp Dewpoint Dewpoint Depression Visibility Wind Speed Wind Dir Waves Ship Positions

Westwood Rainier

Last reported at 2014-Aug-21 15:30 UTC. Time now 2014-Aug-23 19:17 UTC.
Position N 48°57' W 126°47'.

Type: Cargo ship. MMSI: 311348993.

Date/timePositionNaut miles runAvg speedWind from/ knotsBaromVisibWave heightAir tempDewpointWater temp
2014-Aug-21 15:30N 48°57' W 126°47'1313.6
2014-Aug-21 14:33N 48°51' W 126°29'1413.7
2014-Aug-21 13:33N 48°45' W 126°10'1414.3
2014-Aug-21 12:33N 48°38' W 125°51'1414.2
2014-Aug-21 11:34N 48°31' W 125°32'1414.1
2014-Aug-21 10:34N 48°31' W 125°11'1514.5
2014-Aug-21 09:33N 48°31' W 124°49'1514.6
2014-Aug-21 08:33N 48°26' W 124°28'1414.3
2014-Aug-21 07:33N 48°21' W 124°08'1413.9
2014-Aug-21 06:33N 48°17' W 123°48'1312.5
2014-Aug-21 05:33N 48°17' W 123°29'9 8.6
2014-Aug-21 04:33N 48°23' W 123°21'1211.7
2014-Aug-21 03:34N 48°34' W 123°13'1312.2
2014-Aug-21 02:30N 48°45' W 123°05'1111.4
2014-Aug-21 01:34N 48°55' W 123°11'1414.1
2014-Aug-21 00:33N 49°07' W 123°23'1413.6
2014-Aug-20 23:34N 49°19' W 123°13'5 4.9
2014-Aug-20 22:31N 49°17' W 123°06'0 0.0
2014-Aug-20 21:31N 49°17' W 123°06'0 0.0
2014-Aug-20 20:33N 49°17' W 123°06'0 0.0
2014-Aug-20 19:33N 49°17' W 123°06'0 0.0
2014-Aug-20 18:32N 49°17' W 123°06'0 0.0
2014-Aug-20 17:33N 49°17' W 123°06'0 0.0
2014-Aug-20 16:33N 49°17' W 123°06'0 0.0
2014-Aug-20 15:33N 49°17' W 123°06'0 0.0
2014-Aug-20 14:33N 49°17' W 123°06'0 0.0
2014-Aug-20 13:32N 49°17' W 123°06'0 0.0
2014-Aug-20 12:33N 49°17' W 123°06'0 0.0
2014-Aug-20 11:33N 49°17' W 123°06'0 0.0
2014-Aug-20 10:33N 49°17' W 123°06'0 0.0
2014-Aug-20 09:30N 49°17' W 123°06'0 0.0
2014-Aug-20 08:33N 49°17' W 123°06'0 0.0
2014-Aug-20 07:33N 49°17' W 123°06'0 0.0
2014-Aug-20 06:33N 49°17' W 123°06'0 0.0
2014-Aug-20 05:33N 49°17' W 123°06'0 0.0
2014-Aug-20 04:33N 49°17' W 123°06'4 3.9
2014-Aug-20 03:33N 49°19' W 123°11'1313.1
2014-Aug-20 02:33N 49°07' W 123°20'1413.8
2014-Aug-20 01:33N 48°56' W 123°08'1110.9
2014-Aug-20 00:33N 48°45' W 123°04'1211.6
2014-Aug-19 23:34N 48°36' W 123°13'1313.3
2014-Aug-19 22:34N 48°23' W 123°16'1010.2
2014-Aug-19 21:32N 48°15' W 123°27'1414.4
2014-Aug-19 20:33N 48°13' W 123°48'1515.4
2014-Aug-19 19:33N 48°18' W 124°10'1515.3
2014-Aug-19 18:34N 48°25' W 124°31'1514.7
2014-Aug-19 17:33N 48°29' W 124°52'1313.0
2014-Aug-19 16:34N 48°19' W 125°06'9613.6
2014-Aug-19 09:30N 46°44' W 124°54'1314.3
2014-Aug-19 08:33N 46°34' W 124°40'1414.4
2014-Aug-19 07:33N 46°23' W 124°26'1414.2
2014-Aug-19 06:33N 46°13' W 124°12'1111.2
2014-Aug-19 05:33N 46°12' W 123°56'1010.5
2014-Aug-19 04:33N 46°15' W 123°42'1111.2
2014-Aug-19 03:33N 46°13' W 123°25'45 6.3
2014-Aug-18 20:27N 45°38' W 122°45'0 0.0
2014-Aug-18 18:15N 45°38' W 122°45'0 0.0
2014-Aug-18 14:21N 45°38' W 122°45'0 0.0
2014-Aug-18 10:21N 45°38' W 122°45'0 0.0
2014-Aug-18 08:12N 45°38' W 122°45'0 0.0
2014-Aug-18 07:33N 45°38' W 122°45'0 0.0
2014-Aug-17 17:33N 45°38' W 122°45'0 0.0
2014-Aug-17 16:24N 45°38' W 122°45'0 0.0
2014-Aug-17 15:27N 45°38' W 122°45'0 0.0
2014-Aug-17 14:06N 45°38' W 122°45'0 0.0
2014-Aug-17 13:33N 45°38' W 122°45'0 0.0
2014-Aug-17 10:33N 45°38' W 122°45'0 0.0
2014-Aug-17 09:33N 45°38' W 122°45'7 7.3
2014-Aug-17 08:33N 45°46' W 122°46'1211.6
2014-Aug-17 07:32N 45°57' W 122°49'1010.6
2014-Aug-17 06:33N 46°06' W 122°57'2 2.1
2014-Aug-17 05:32N 46°08' W 122°59'0 0.0
2014-Aug-17 04:32N 46°08' W 122°59'0 0.0
2014-Aug-16 20:08N 46°08' W 122°59'0 0.0
2014-Aug-16 18:26N 46°08' W 122°59'0 0.0
2014-Aug-16 17:14N 46°08' W 122°59'0 0.0
2014-Aug-16 16:32N 46°08' W 122°59'0 0.0
2014-Aug-16 15:32N 46°08' W 122°59'0 0.0
2014-Aug-16 10:26N 46°08' W 122°59'0 0.0
2014-Aug-16 09:32N 46°08' W 122°59'0 0.0
2014-Aug-16 08:26N 46°08' W 122°59'0 0.0
2014-Aug-16 07:32N 46°08' W 122°59'0 0.0
2014-Aug-16 06:32N 46°08' W 122°59'0 0.0
2014-Aug-15 16:05N 46°08' W 122°59'0 0.0
2014-Aug-15 15:29N 46°08' W 122°59'0 0.0
2014-Aug-15 14:32N 46°08' W 122°59'0 0.0
2014-Aug-15 13:29N 46°08' W 122°59'0 0.0
2014-Aug-15 12:29N 46°08' W 122°59'0 0.0
2014-Aug-15 11:29N 46°08' W 122°59'0 0.0
2014-Aug-15 10:32N 46°08' W 122°59'0 0.0
2014-Aug-15 09:32N 46°08' W 122°59'0 0.0
2014-Aug-15 08:32N 46°08' W 122°59'0 0.0
2014-Aug-15 07:32N 46°08' W 122°59'0 0.0
2014-Aug-15 06:14N 46°08' W 122°59'0 0.0
2014-Aug-15 05:32N 46°08' W 122°59'0 0.0
2014-Aug-15 04:26N 46°08' W 122°59'0 0.0
2014-Aug-14 22:32N 46°08' W 122°59'0 0.0
2014-Aug-14 21:26N 46°08' W 122°59'0 0.0
2014-Aug-14 20:32N 46°08' W 122°59'0 0.0
2014-Aug-14 19:32N 46°08' W 122°59'0 0.0
2014-Aug-14 18:32N 46°08' W 122°59'0 0.0
2014-Aug-14 17:29N 46°08' W 122°59'0 0.0
2014-Aug-14 16:29N 46°08' W 122°59'0 0.0
2014-Aug-14 15:32N 46°08' W 122°59'0 0.0
2014-Aug-14 14:32N 46°08' W 122°59'0 0.0
2014-Aug-14 13:29N 46°08' W 122°59'0 0.0
2014-Aug-14 12:32N 46°08' W 122°59'0 0.0
2014-Aug-14 11:32N 46°08' W 122°59'0 0.0
2014-Aug-14 10:32N 46°08' W 122°59'0 0.0
2014-Aug-14 09:32N 46°08' W 122°59'0 0.0
2014-Aug-14 08:32N 46°08' W 122°59'0 0.0
2014-Aug-14 07:32N 46°08' W 122°59'0 0.0
2014-Aug-14 06:32N 46°08' W 122°59'0 0.0
2014-Aug-14 05:32N 46°08' W 122°59'0 0.0
2014-Aug-14 04:32N 46°08' W 122°59'0 0.0
2014-Aug-14 03:32N 46°08' W 122°59'0 0.0
2014-Aug-14 02:32N 46°08' W 122°59'0 0.0
2014-Aug-14 01:32N 46°08' W 122°59'0 0.0
2014-Aug-14 00:32N 46°08' W 122°59'0 0.0
2014-Aug-13 23:32N 46°08' W 122°59'0 0.0
2014-Aug-13 22:26N 46°08' W 122°59'0 0.0
2014-Aug-13 21:32N 46°08' W 122°59'0 0.0
2014-Aug-13 20:32N 46°08' W 122°59'0 0.0
2014-Aug-13 19:32N 46°08' W 122°59'0 0.0
2014-Aug-13 18:32N 46°08' W 122°59'0 0.0
2014-Aug-13 17:32N 46°08' W 122°59'0 0.0
2014-Aug-13 16:29N 46°08' W 122°59'0 0.0
2014-Aug-13 15:32N 46°08' W 122°59'0 0.0
2014-Aug-13 14:32N 46°08' W 122°59'0 0.0
2014-Aug-13 13:32N 46°08' W 122°59'0 0.0
2014-Aug-13 12:29N 46°08' W 122°59'0 0.0
2014-Aug-13 11:29N 46°08' W 122°59'0 0.0
2014-Aug-13 10:32N 46°08' W 122°59'0 0.0
2014-Aug-13 09:32N 46°08' W 122°59'0 0.0
2014-Aug-13 08:32N 46°08' W 122°59'0 0.0
2014-Aug-13 07:32N 46°08' W 122°59'0 0.0
2014-Aug-13 06:32N 46°08' W 122°59'0 0.0
2014-Aug-13 05:29N 46°08' W 122°59'0 0.0
2014-Aug-13 04:32N 46°08' W 122°59'0 0.0
2014-Aug-13 03:29N 46°08' W 122°59'0 0.0
2014-Aug-13 02:32N 46°08' W 122°59'0 0.0
2014-Aug-13 01:32N 46°08' W 122°59'0 0.0
2014-Aug-13 00:32N 46°08' W 122°59'0 0.0
2014-Aug-12 23:32N 46°08' W 122°59'0 0.0
2014-Aug-12 22:32N 46°08' W 122°59'0 0.0
2014-Aug-12 21:29N 46°08' W 122°59'0 0.0
2014-Aug-12 20:32N 46°08' W 122°59'0 0.0
2014-Aug-12 19:29N 46°08' W 122°59'0 0.0
2014-Aug-12 18:32N 46°08' W 122°59'0 0.0
2014-Aug-12 17:29N 46°08' W 122°59'0 0.0
2014-Aug-12 16:32N 46°08' W 122°59'0 0.0
2014-Aug-12 15:29N 46°08' W 122°59'0 0.0
2014-Aug-12 14:29N 46°08' W 122°59'0 0.5
2014-Aug-12 13:33N 46°08' W 122°60'6 6.2
2014-Aug-12 12:33N 46°11' W 123°07'1212.3
2014-Aug-12 11:33N 46°10' W 123°25'1010.2
2014-Aug-12 10:33N 46°15' W 123°37'1211.8
2014-Aug-12 09:33N 46°11' W 123°53'1212.5
2014-Aug-12 08:33N 46°13' W 124°11'10 9.7
2014-Aug-12 07:31N 46°16' W 124°25'3 3.6
2014-Aug-12 06:33N 46°20' W 124°25'7 7.5
2014-Aug-12 05:33N 46°27' W 124°28'9 8.1
2014-Aug-12 04:25N 46°35' W 124°36'2014.7
2014-Aug-12 03:03N 46°53' W 124°49'814.7
2014-Aug-12 02:29N 47°00' W 124°54'1414.7
2014-Aug-12 01:33N 47°13' W 125°01'1514.9
2014-Aug-12 00:34N 47°28' W 125°04'1515.0
2014-Aug-11 23:34N 47°42' W 125°11'1514.5
2014-Aug-11 22:33N 47°56' W 125°18'1514.3
2014-Aug-11 21:30N 48°11' W 125°15'1314.1
2014-Aug-11 20:33N 48°23' W 125°09'1212.2
2014-Aug-11 19:33N 48°31' W 124°55'1514.6
2014-Aug-11 18:34N 48°28' W 124°33'1615.8
2014-Aug-11 17:33N 48°22' W 124°11'1616.4
2014-Aug-11 16:33N 48°17' W 123°48'1514.7
2014-Aug-11 15:33N 48°21' W 123°26'  
Track history (hours):
 
Tides and Currents Weather Stations Pressure Air Temp Water Temp Dewpoint Dewpoint Depression Visibility Wind Speed Wind Dir Waves Ship Positions

Westwood Rainier

Last reported at 2014-Aug-21 15:30 UTC. Time now 2014-Aug-23 19:17 UTC.
Position N 48°57' W 126°47'.

Type: Cargo ship. MMSI: 311348993.

Date/timePositionNaut miles runAvg speedWind from/ knotsBaromVisibWave heightAir tempDewpointWater temp
2014-Aug-21 15:30N 48°57' W 126°47'1313.6
2014-Aug-21 14:33N 48°51' W 126°29'1413.7
2014-Aug-21 13:33N 48°45' W 126°10'1414.3
2014-Aug-21 12:33N 48°38' W 125°51'1414.2
2014-Aug-21 11:34N 48°31' W 125°32'1414.1
2014-Aug-21 10:34N 48°31' W 125°11'1514.5
2014-Aug-21 09:33N 48°31' W 124°49'1514.6
2014-Aug-21 08:33N 48°26' W 124°28'1414.3
2014-Aug-21 07:33N 48°21' W 124°08'1413.9
2014-Aug-21 06:33N 48°17' W 123°48'1312.5
2014-Aug-21 05:33N 48°17' W 123°29'9 8.6
2014-Aug-21 04:33N 48°23' W 123°21'1211.7
2014-Aug-21 03:34N 48°34' W 123°13'1312.2
2014-Aug-21 02:30N 48°45' W 123°05'1111.4
2014-Aug-21 01:34N 48°55' W 123°11'1414.1
2014-Aug-21 00:33N 49°07' W 123°23'1413.6
2014-Aug-20 23:34N 49°19' W 123°13'5 4.9
2014-Aug-20 22:31N 49°17' W 123°06'0 0.0
2014-Aug-20 21:31N 49°17' W 123°06'0 0.0
2014-Aug-20 20:33N 49°17' W 123°06'0 0.0
2014-Aug-20 19:33N 49°17' W 123°06'0 0.0
2014-Aug-20 18:32N 49°17' W 123°06'0 0.0
2014-Aug-20 17:33N 49°17' W 123°06'0 0.0
2014-Aug-20 16:33N 49°17' W 123°06'0 0.0
2014-Aug-20 15:33N 49°17' W 123°06'0 0.0
2014-Aug-20 14:33N 49°17' W 123°06'0 0.0
2014-Aug-20 13:32N 49°17' W 123°06'0 0.0
2014-Aug-20 12:33N 49°17' W 123°06'0 0.0
2014-Aug-20 11:33N 49°17' W 123°06'0 0.0
2014-Aug-20 10:33N 49°17' W 123°06'0 0.0
2014-Aug-20 09:30N 49°17' W 123°06'0 0.0
2014-Aug-20 08:33N 49°17' W 123°06'0 0.0
2014-Aug-20 07:33N 49°17' W 123°06'0 0.0
2014-Aug-20 06:33N 49°17' W 123°06'0 0.0
2014-Aug-20 05:33N 49°17' W 123°06'0 0.0
2014-Aug-20 04:33N 49°17' W 123°06'4 3.9
2014-Aug-20 03:33N 49°19' W 123°11'1313.1
2014-Aug-20 02:33N 49°07' W 123°20'1413.8
2014-Aug-20 01:33N 48°56' W 123°08'1110.9
2014-Aug-20 00:33N 48°45' W 123°04'1211.6
2014-Aug-19 23:34N 48°36' W 123°13'1313.3
2014-Aug-19 22:34N 48°23' W 123°16'1010.2
2014-Aug-19 21:32N 48°15' W 123°27'1414.4
2014-Aug-19 20:33N 48°13' W 123°48'1515.4
2014-Aug-19 19:33N 48°18' W 124°10'1515.3
2014-Aug-19 18:34N 48°25' W 124°31'1514.7
2014-Aug-19 17:33N 48°29' W 124°52'1313.0
2014-Aug-19 16:34N 48°19' W 125°06'9613.6
2014-Aug-19 09:30N 46°44' W 124°54'1314.3
2014-Aug-19 08:33N 46°34' W 124°40'1414.4
2014-Aug-19 07:33N 46°23' W 124°26'1414.2
2014-Aug-19 06:33N 46°13' W 124°12'1111.2
2014-Aug-19 05:33N 46°12' W 123°56'1010.5
2014-Aug-19 04:33N 46°15' W 123°42'1111.2
2014-Aug-19 03:33N 46°13' W 123°25'45 6.3
2014-Aug-18 20:27N 45°38' W 122°45'0 0.0
2014-Aug-18 18:15N 45°38' W 122°45'0 0.0
2014-Aug-18 14:21N 45°38' W 122°45'0 0.0
2014-Aug-18 10:21N 45°38' W 122°45'0 0.0
2014-Aug-18 08:12N 45°38' W 122°45'0 0.0
2014-Aug-18 07:33N 45°38' W 122°45'0 0.0
2014-Aug-17 17:33N 45°38' W 122°45'0 0.0
2014-Aug-17 16:24N 45°38' W 122°45'0 0.0
2014-Aug-17 15:27N 45°38' W 122°45'0 0.0
2014-Aug-17 14:06N 45°38' W 122°45'0 0.0
2014-Aug-17 13:33N 45°38' W 122°45'0 0.0
2014-Aug-17 10:33N 45°38' W 122°45'0 0.0
2014-Aug-17 09:33N 45°38' W 122°45'7 7.3
2014-Aug-17 08:33N 45°46' W 122°46'1211.6
2014-Aug-17 07:32N 45°57' W 122°49'1010.6
2014-Aug-17 06:33N 46°06' W 122°57'2 2.1
2014-Aug-17 05:32N 46°08' W 122°59'0 0.0
2014-Aug-17 04:32N 46°08' W 122°59'0 0.0
2014-Aug-16 20:08N 46°08' W 122°59'0 0.0
2014-Aug-16 18:26N 46°08' W 122°59'0 0.0
2014-Aug-16 17:14N 46°08' W 122°59'0 0.0
2014-Aug-16 16:32N 46°08' W 122°59'0 0.0
2014-Aug-16 15:32N 46°08' W 122°59'0 0.0
2014-Aug-16 10:26N 46°08' W 122°59'0 0.0
2014-Aug-16 09:32N 46°08' W 122°59'0 0.0
2014-Aug-16 08:26N 46°08' W 122°59'0 0.0
2014-Aug-16 07:32N 46°08' W 122°59'0 0.0
2014-Aug-16 06:32N 46°08' W 122°59'0 0.0
2014-Aug-15 16:05N 46°08' W 122°59'0 0.0
2014-Aug-15 15:29N 46°08' W 122°59'0 0.0
2014-Aug-15 14:32N 46°08' W 122°59'0 0.0
2014-Aug-15 13:29N 46°08' W 122°59'0 0.0
2014-Aug-15 12:29N 46°08' W 122°59'0 0.0
2014-Aug-15 11:29N 46°08' W 122°59'0 0.0
2014-Aug-15 10:32N 46°08' W 122°59'0 0.0
2014-Aug-15 09:32N 46°08' W 122°59'0 0.0
2014-Aug-15 08:32N 46°08' W 122°59'0 0.0
2014-Aug-15 07:32N 46°08' W 122°59'0 0.0
2014-Aug-15 06:14N 46°08' W 122°59'0 0.0
2014-Aug-15 05:32N 46°08' W 122°59'0 0.0
2014-Aug-15 04:26N 46°08' W 122°59'0 0.0
2014-Aug-14 22:32N 46°08' W 122°59'0 0.0
2014-Aug-14 21:26N 46°08' W 122°59'0 0.0
2014-Aug-14 20:32N 46°08' W 122°59'0 0.0
2014-Aug-14 19:32N 46°08' W 122°59'0 0.0
2014-Aug-14 18:32N 46°08' W 122°59'0 0.0
2014-Aug-14 17:29N 46°08' W 122°59'0 0.0
2014-Aug-14 16:29N 46°08' W 122°59'0 0.0
2014-Aug-14 15:32N 46°08' W 122°59'0 0.0
2014-Aug-14 14:32N 46°08' W 122°59'0 0.0
2014-Aug-14 13:29N 46°08' W 122°59'0 0.0
2014-Aug-14 12:32N 46°08' W 122°59'0 0.0
2014-Aug-14 11:32N 46°08' W 122°59'0 0.0
2014-Aug-14 10:32N 46°08' W 122°59'0 0.0
2014-Aug-14 09:32N 46°08' W 122°59'0 0.0
2014-Aug-14 08:32N 46°08' W 122°59'0 0.0
2014-Aug-14 07:32N 46°08' W 122°59'0 0.0
2014-Aug-14 06:32N 46°08' W 122°59'0 0.0
2014-Aug-14 05:32N 46°08' W 122°59'0 0.0
2014-Aug-14 04:32N 46°08' W 122°59'0 0.0
2014-Aug-14 03:32N 46°08' W 122°59'0 0.0
2014-Aug-14 02:32N 46°08' W 122°59'0 0.0
2014-Aug-14 01:32N 46°08' W 122°59'0 0.0
2014-Aug-14 00:32N 46°08' W 122°59'0 0.0
2014-Aug-13 23:32N 46°08' W 122°59'0 0.0
2014-Aug-13 22:26N 46°08' W 122°59'0 0.0
2014-Aug-13 21:32N 46°08' W 122°59'0 0.0
2014-Aug-13 20:32N 46°08' W 122°59'0 0.0
2014-Aug-13 19:32N 46°08' W 122°59'0 0.0
2014-Aug-13 18:32N 46°08' W 122°59'0 0.0
2014-Aug-13 17:32N 46°08' W 122°59'0 0.0
2014-Aug-13 16:29N 46°08' W 122°59'0 0.0
2014-Aug-13 15:32N 46°08' W 122°59'0 0.0
2014-Aug-13 14:32N 46°08' W 122°59'0 0.0
2014-Aug-13 13:32N 46°08' W 122°59'0 0.0
2014-Aug-13 12:29N 46°08' W 122°59'0 0.0
2014-Aug-13 11:29N 46°08' W 122°59'0 0.0
2014-Aug-13 10:32N 46°08' W 122°59'0 0.0
2014-Aug-13 09:32N 46°08' W 122°59'0 0.0
2014-Aug-13 08:32N 46°08' W 122°59'0 0.0
2014-Aug-13 07:32N 46°08' W 122°59'0 0.0
2014-Aug-13 06:32N 46°08' W 122°59'0 0.0
2014-Aug-13 05:29N 46°08' W 122°59'0 0.0
2014-Aug-13 04:32N 46°08' W 122°59'0 0.0
2014-Aug-13 03:29N 46°08' W 122°59'0 0.0
2014-Aug-13 02:32N 46°08' W 122°59'0 0.0
2014-Aug-13 01:32N 46°08' W 122°59'0 0.0
2014-Aug-13 00:32N 46°08' W 122°59'0 0.0
2014-Aug-12 23:32N 46°08' W 122°59'0 0.0
2014-Aug-12 22:32N 46°08' W 122°59'0 0.0
2014-Aug-12 21:29N 46°08' W 122°59'0 0.0
2014-Aug-12 20:32N 46°08' W 122°59'0 0.0
2014-Aug-12 19:29N 46°08' W 122°59'0 0.0
2014-Aug-12 18:32N 46°08' W 122°59'0 0.0
2014-Aug-12 17:29N 46°08' W 122°59'0 0.0
2014-Aug-12 16:32N 46°08' W 122°59'0 0.0
2014-Aug-12 15:29N 46°08' W 122°59'0 0.0
2014-Aug-12 14:29N 46°08' W 122°59'0 0.5
2014-Aug-12 13:33N 46°08' W 122°60'6 6.2
2014-Aug-12 12:33N 46°11' W 123°07'1212.3
2014-Aug-12 11:33N 46°10' W 123°25'1010.2
2014-Aug-12 10:33N 46°15' W 123°37'1211.8
2014-Aug-12 09:33N 46°11' W 123°53'1212.5
2014-Aug-12 08:33N 46°13' W 124°11'10 9.7
2014-Aug-12 07:31N 46°16' W 124°25'3 3.6
2014-Aug-12 06:33N 46°20' W 124°25'7 7.5
2014-Aug-12 05:33N 46°27' W 124°28'9 8.1
2014-Aug-12 04:25N 46°35' W 124°36'2014.7
2014-Aug-12 03:03N 46°53' W 124°49'814.7
2014-Aug-12 02:29N 47°00' W 124°54'1414.7
2014-Aug-12 01:33N 47°13' W 125°01'1514.9
2014-Aug-12 00:34N 47°28' W 125°04'1515.0
2014-Aug-11 23:34N 47°42' W 125°11'1514.5
2014-Aug-11 22:33N 47°56' W 125°18'1514.3
2014-Aug-11 21:30N 48°11' W 125°15'1314.1
2014-Aug-11 20:33N 48°23' W 125°09'1212.2
2014-Aug-11 19:33N 48°31' W 124°55'1514.6
2014-Aug-11 18:34N 48°28' W 124°33'1615.8
2014-Aug-11 17:33N 48°22' W 124°11'1616.4
2014-Aug-11 16:33N 48°17' W 123°48'1514.7
2014-Aug-11 15:33N 48°21' W 123°26'  

Dump ship's entire track history